createdAt,value
2018-05-08T00:02:26.228Z,11.90
2018-05-08T00:04:54.460Z,10.10
2018-05-08T00:07:21.958Z,11.70
2018-05-08T00:09:50.293Z,11.70
2018-05-08T00:12:17.763Z,11.60
2018-05-08T00:14:45.249Z,11.50
2018-05-08T00:17:13.474Z,11.40
2018-05-08T00:19:40.969Z,11.40
2018-05-08T00:22:08.439Z,11.30
2018-05-08T00:24:35.940Z,11.30
2018-05-08T00:27:03.403Z,11.20
2018-05-08T00:29:30.901Z,11.30
2018-05-08T00:31:58.415Z,11.20
2018-05-08T00:34:25.903Z,11.20
2018-05-08T00:36:53.379Z,11.10
2018-05-08T00:39:20.881Z,11.10
2018-05-08T00:41:48.349Z,11.00
2018-05-08T00:44:15.852Z,11.00
2018-05-08T00:46:43.329Z,11.00
2018-05-08T00:49:11.594Z,10.90
2018-05-08T00:51:39.066Z,10.90
2018-05-08T00:54:07.338Z,10.80
2018-05-08T00:56:35.552Z,10.80
2018-05-08T00:59:03.034Z,10.80
2018-05-08T01:01:30.539Z,10.80
2018-05-08T01:03:58.042Z,10.80
2018-05-08T01:06:25.534Z,10.80
2018-05-08T01:08:53.782Z,10.70
2018-05-08T01:11:21.302Z,10.70
2018-05-08T01:13:48.772Z,10.70
2018-05-08T01:16:16.270Z,10.80
2018-05-08T01:18:43.740Z,10.80
2018-05-08T01:21:12.003Z,10.70
2018-05-08T01:23:39.498Z,10.70
2018-05-08T01:26:06.982Z,10.70
2018-05-08T01:28:34.470Z,10.60
2018-05-08T01:31:01.992Z,10.60
2018-05-08T01:33:29.497Z,10.60
2018-05-08T01:35:57.207Z,10.50
2018-05-08T01:38:24.693Z,10.50
2018-05-08T01:40:52.213Z,10.50
2018-05-08T01:43:19.711Z,10.50
2018-05-08T01:45:47.242Z,10.40
2018-05-08T01:48:14.730Z,10.40
2018-05-08T01:50:42.213Z,10.40
2018-05-08T01:53:09.706Z,10.30
2018-05-08T01:55:37.276Z,10.30
2018-05-08T01:58:04.763Z,10.30
2018-05-08T02:00:33.014Z,10.20
2018-05-08T02:03:00.512Z,10.20
2018-05-08T02:05:27.979Z,10.20
2018-05-08T02:07:55.468Z,10.20
2018-05-08T02:10:22.925Z,10.10
2018-05-08T02:12:50.439Z,10.10
2018-05-08T02:15:17.913Z,10.00
2018-05-08T02:17:45.402Z,10.00
2018-05-08T02:20:12.977Z,10.00
2018-05-08T02:22:40.468Z,9.90
2018-05-08T02:25:07.962Z,9.90
2018-05-08T02:27:36.226Z,9.80
2018-05-08T02:30:04.463Z,9.70
2018-05-08T02:32:32.680Z,9.70
2018-05-08T02:35:00.942Z,9.70
2018-05-08T02:37:28.410Z,9.70
2018-05-08T02:39:56.670Z,9.70
2018-05-08T02:42:24.131Z,9.60
2018-05-08T02:44:51.635Z,9.60
2018-05-08T02:47:19.092Z,9.60
2018-05-08T02:49:46.593Z,9.60
2018-05-08T02:52:14.067Z,9.60
2018-05-08T02:54:41.579Z,9.60
2018-05-08T02:57:09.043Z,9.50
2018-05-08T02:59:36.541Z,9.50
2018-05-08T03:02:04.005Z,9.50
2018-05-08T03:04:32.270Z,9.40
2018-05-08T03:06:59.740Z,9.30
2018-05-08T03:09:28.067Z,9.30
2018-05-08T03:11:55.538Z,9.20
2018-05-08T03:14:23.066Z,9.20
2018-05-08T03:16:50.534Z,9.20
2018-05-08T03:19:18.025Z,9.20
2018-05-08T03:21:45.524Z,9.20
2018-05-08T03:24:13.763Z,9.10
2018-05-08T03:26:41.267Z,9.10
2018-05-08T03:29:08.752Z,9.00
2018-05-08T03:31:36.245Z,9.00
2018-05-08T03:34:03.720Z,9.00
2018-05-08T03:36:31.983Z,9.00
2018-05-08T03:38:59.460Z,9.00
2018-05-08T03:41:27.726Z,8.90
2018-05-08T03:43:55.961Z,8.90
2018-05-08T03:46:23.470Z,8.90
2018-05-08T03:48:50.958Z,8.90
2018-05-08T03:51:18.437Z,8.90
2018-05-08T03:53:45.904Z,8.80
2018-05-08T03:56:13.398Z,8.80
2018-05-08T03:58:41.651Z,8.80
2018-05-08T04:01:21.816Z,8.70
2018-05-08T04:04:01.944Z,8.80
2018-05-08T04:06:55.260Z,8.70
2018-05-08T04:09:22.720Z,8.80
2018-05-08T04:11:50.240Z,8.70
2018-05-08T04:14:17.716Z,8.70
2018-05-08T04:16:45.961Z,8.60
2018-05-08T04:19:13.449Z,8.60
2018-05-08T04:21:41.702Z,8.60
2018-05-08T04:24:09.180Z,8.60
2018-05-08T04:26:37.413Z,8.60
2018-05-08T04:29:04.904Z,8.60
2018-05-08T04:31:33.144Z,8.60
2018-05-08T04:34:00.632Z,8.60
2018-05-08T04:36:28.094Z,8.70
2018-05-08T04:38:56.356Z,8.70
2018-05-08T04:41:23.808Z,8.70
2018-05-08T04:43:51.291Z,8.70
2018-05-08T04:46:19.522Z,8.80
2018-05-08T04:48:47.026Z,8.80
2018-05-08T04:51:15.253Z,8.90
2018-05-08T04:53:42.741Z,8.90
2018-05-08T04:56:10.203Z,9.00
2018-05-08T04:58:37.680Z,9.00
2018-05-08T05:01:05.920Z,9.20
2018-05-08T05:03:33.387Z,9.20
2018-05-08T05:06:00.877Z,9.20
2018-05-08T05:08:28.412Z,9.30
2018-05-08T05:10:57.243Z,9.50
2018-05-08T05:13:24.707Z,9.50
2018-05-08T05:15:52.207Z,9.60
2018-05-08T05:18:19.679Z,9.70
2018-05-08T05:20:47.942Z,10.00
2018-05-08T05:23:15.401Z,10.00
2018-05-08T05:25:42.915Z,10.10
2018-05-08T05:28:10.525Z,10.20
2018-05-08T05:30:38.127Z,10.30
2018-05-08T05:33:05.591Z,10.40
2018-05-08T05:35:33.093Z,10.50
2018-05-08T05:38:00.559Z,10.70
2018-05-08T05:40:28.832Z,11.00
2018-05-08T05:42:56.323Z,11.00
2018-05-08T05:45:23.807Z,11.20
2018-05-08T05:47:51.295Z,11.30
2018-05-08T05:50:18.761Z,11.50
2018-05-08T05:52:46.251Z,11.70
2018-05-08T05:55:13.726Z,12.70
2018-05-08T05:57:41.236Z,12.20
2018-05-08T06:00:08.770Z,12.40
2018-05-08T06:02:36.209Z,12.60
2018-05-08T06:05:03.689Z,12.90
2018-05-08T06:07:31.187Z,13.10
2018-05-08T06:09:59.410Z,13.50
2018-05-08T06:12:26.916Z,13.40
2018-05-08T06:14:55.136Z,13.80
2018-05-08T06:17:22.639Z,13.80
2018-05-08T06:19:50.896Z,14.20
2018-05-08T06:22:18.395Z,14.20
2018-05-08T06:24:45.894Z,14.40
2018-05-08T06:27:14.172Z,14.80
2018-05-08T06:29:41.664Z,14.80
2018-05-08T06:32:09.890Z,15.20
2018-05-08T06:34:37.393Z,15.20
2018-05-08T06:37:05.627Z,15.40
2018-05-08T06:39:33.178Z,15.40
2018-05-08T06:42:01.368Z,15.90
2018-05-08T06:44:28.862Z,15.80
2018-05-08T06:46:57.112Z,16.40
2018-05-08T06:49:24.617Z,16.50
2018-05-08T06:51:52.119Z,16.80
2018-05-08T06:54:19.642Z,17.10
2018-05-08T06:56:47.115Z,17.40
2018-05-08T06:59:14.626Z,17.70
2018-05-08T07:01:42.104Z,18.80
2018-05-08T07:04:10.359Z,18.70
2018-05-08T07:06:38.603Z,19.10
2018-05-08T07:09:06.128Z,19.10
2018-05-08T07:11:34.354Z,19.80
2018-05-08T07:14:01.860Z,19.80
2018-05-08T07:16:29.363Z,20.10
2018-05-08T07:18:56.910Z,20.50
2018-05-08T07:21:24.343Z,20.80
2018-05-08T07:23:51.932Z,21.40
2018-05-08T07:26:20.145Z,22.60
2018-05-08T07:28:48.398Z,23.30
2018-05-08T07:31:16.671Z,23.80
2018-05-08T07:33:44.146Z,23.80
2018-05-08T07:36:12.405Z,24.30
2018-05-08T07:38:39.866Z,24.20
2018-05-08T07:41:07.395Z,24.60
2018-05-08T07:43:34.866Z,25.10
2018-05-08T07:46:02.363Z,25.80
2018-05-08T07:48:30.614Z,25.80
2018-05-08T07:50:58.207Z,25.80
2018-05-08T07:53:26.448Z,26.00
2018-05-08T07:55:53.966Z,26.00
2018-05-08T07:58:21.452Z,26.80
2018-05-08T08:00:48.957Z,27.50
2018-05-08T08:03:16.441Z,28.10
2018-05-08T08:05:43.962Z,28.20
2018-05-08T08:08:12.208Z,29.30
2018-05-08T08:10:39.721Z,29.20
2018-05-08T08:13:07.194Z,29.50
2018-05-08T08:15:34.666Z,29.60
2018-05-08T08:18:02.160Z,30.10
2018-05-08T08:20:29.650Z,29.80
2018-05-08T08:22:57.146Z,29.50
2018-05-08T08:25:24.645Z,29.50
2018-05-08T08:27:52.924Z,29.90
2018-05-08T08:30:21.164Z,30.60
2018-05-08T08:32:48.702Z,30.60
2018-05-08T08:35:16.940Z,30.20
2018-05-08T08:37:44.450Z,30.20
2018-05-08T08:40:11.975Z,30.10
2018-05-08T08:42:39.471Z,30.20
2018-05-08T08:45:06.958Z,30.30
2018-05-08T08:47:35.243Z,31.10
2018-05-08T08:50:03.490Z,31.40
2018-05-08T08:52:31.009Z,31.40
2018-05-08T08:54:58.493Z,31.60
2018-05-08T08:57:26.009Z,32.20
2018-05-08T08:59:53.482Z,32.70
2018-05-08T09:02:20.947Z,33.10
2018-05-08T09:04:48.455Z,33.20
2018-05-08T09:07:16.782Z,34.00
2018-05-08T09:09:44.271Z,33.90
2018-05-08T09:12:11.756Z,34.00
2018-05-08T09:14:40.030Z,34.40
2018-05-08T09:17:08.297Z,34.30
2018-05-08T09:19:35.798Z,34.40
2018-05-08T09:22:03.458Z,34.20
2018-05-08T09:24:30.996Z,34.40
2018-05-08T09:26:58.490Z,34.60
2018-05-08T09:29:26.004Z,34.70
2018-05-08T09:31:54.253Z,35.60
2018-05-08T09:34:21.756Z,35.60
2018-05-08T09:36:49.258Z,35.80
2018-05-08T09:39:16.747Z,35.80
2018-05-08T09:41:45.000Z,35.70
2018-05-08T09:44:12.528Z,35.60
2018-05-08T09:46:40.095Z,35.80
2018-05-08T09:49:07.625Z,36.00
2018-05-08T09:51:35.088Z,35.80
2018-05-08T09:54:02.568Z,36.00
2018-05-08T09:56:30.071Z,36.10
2018-05-08T09:58:58.333Z,36.90
2018-05-08T10:01:25.857Z,36.90
2018-05-08T10:03:53.336Z,36.90
2018-05-08T10:06:21.643Z,37.50
2018-05-08T10:08:49.871Z,37.00
2018-05-08T10:11:17.393Z,37.00
2018-05-08T10:13:44.877Z,36.50
2018-05-08T10:16:12.391Z,36.80
2018-05-08T10:18:39.865Z,37.10
2018-05-08T10:21:07.365Z,38.10
2018-05-08T10:23:34.853Z,38.30
2018-05-08T10:26:02.403Z,38.30
2018-05-08T10:28:29.906Z,38.00
2018-05-08T10:30:58.114Z,38.20
2018-05-08T10:33:25.633Z,37.80
2018-05-08T10:35:53.112Z,38.20
2018-05-08T10:38:20.618Z,38.40
2018-05-08T10:40:48.099Z,39.00
2018-05-08T10:43:15.616Z,39.30
2018-05-08T10:45:43.096Z,38.40
2018-05-08T10:48:10.617Z,38.80
2018-05-08T10:50:38.084Z,39.00
2018-05-08T10:53:05.641Z,39.10
2018-05-08T10:55:33.142Z,39.90
2018-05-08T10:58:01.397Z,40.60
2018-05-08T11:00:28.908Z,40.60
2018-05-08T11:02:56.387Z,41.30
2018-05-08T11:05:23.903Z,40.90
2018-05-08T11:07:52.132Z,40.20
2018-05-08T11:10:19.651Z,40.20
2018-05-08T11:12:47.140Z,40.10
2018-05-08T11:15:14.656Z,40.40
2018-05-08T11:17:42.909Z,40.20
2018-05-08T11:20:11.184Z,40.90
2018-05-08T11:22:39.428Z,41.10
2018-05-08T11:25:06.933Z,41.10
2018-05-08T11:27:35.179Z,40.90
2018-05-08T11:30:02.675Z,40.80
2018-05-08T11:32:30.152Z,39.90
2018-05-08T11:34:57.627Z,40.50
2018-05-08T11:37:25.141Z,40.70
2018-05-08T11:39:53.373Z,41.70
2018-05-08T11:42:20.857Z,41.70
2018-05-08T11:44:49.197Z,40.70
2018-05-08T11:47:16.609Z,40.60
2018-05-08T11:49:44.099Z,40.70
2018-05-08T11:52:11.599Z,40.30
2018-05-08T11:54:39.140Z,40.70
2018-05-08T11:57:06.657Z,41.20
2018-05-08T11:59:34.143Z,41.10
2018-05-08T12:02:01.656Z,41.30
2018-05-08T12:04:29.918Z,40.70
2018-05-08T12:06:58.179Z,41.60
2018-05-08T12:09:25.671Z,41.60
2018-05-08T12:11:53.182Z,42.20
2018-05-08T12:14:20.655Z,42.10
2018-05-08T12:16:48.141Z,42.60
2018-05-08T12:19:15.725Z,43.20
2018-05-08T12:21:44.166Z,43.70
2018-05-08T12:24:11.647Z,43.70
2018-05-08T12:26:39.118Z,43.50
2018-05-08T12:29:06.630Z,43.60
2018-05-08T12:31:34.935Z,42.90
2018-05-08T12:34:02.477Z,42.90
2018-05-08T12:36:30.733Z,42.30
2018-05-08T12:38:58.245Z,42.20
2018-05-08T12:41:25.714Z,42.00
2018-05-08T12:43:53.262Z,41.60
2018-05-08T12:46:20.728Z,41.90
2018-05-08T12:48:48.242Z,42.70
2018-05-08T12:51:16.530Z,42.60
2018-05-08T12:53:44.062Z,42.60
2018-05-08T12:56:11.574Z,42.70
2018-05-08T12:58:39.786Z,42.90
2018-05-08T13:01:07.302Z,42.90
2018-05-08T13:03:34.782Z,42.80
2018-05-08T13:06:02.308Z,41.70
2018-05-08T13:08:29.783Z,41.50
2018-05-08T13:10:57.306Z,41.70
2018-05-08T13:13:26.724Z,42.20
2018-05-08T13:15:54.230Z,42.20
2018-05-08T13:18:21.725Z,43.00
2018-05-08T13:20:50.028Z,43.30
2018-05-08T13:23:17.591Z,43.30
2018-05-08T13:25:45.193Z,43.60
2018-05-08T13:28:12.713Z,43.40
2018-05-08T13:30:40.403Z,43.00
2018-05-08T13:33:08.066Z,42.50
2018-05-08T13:35:35.580Z,39.60
2018-05-08T13:38:03.125Z,39.50
2018-05-08T13:40:30.696Z,39.50
2018-05-08T13:42:58.216Z,40.10
2018-05-08T13:45:25.702Z,39.80
2018-05-08T13:47:53.989Z,38.20
2018-05-08T13:50:21.472Z,38.10
2018-05-08T13:52:49.074Z,37.50
2018-05-08T13:55:16.551Z,37.00
2018-05-08T13:57:44.842Z,35.70
2018-05-08T14:00:12.320Z,35.70
2018-05-08T14:02:39.844Z,34.90
2018-05-08T14:05:08.090Z,33.90
2018-05-08T14:07:35.577Z,33.80
2018-05-08T14:10:03.889Z,33.70
2018-05-08T14:12:31.361Z,33.60
2018-05-08T14:14:58.875Z,33.50
2018-05-08T14:17:26.349Z,33.40
2018-05-08T14:19:53.886Z,33.30
2018-05-08T14:22:22.120Z,33.00
2018-05-08T14:24:49.685Z,33.00
2018-05-08T14:27:17.154Z,32.50
2018-05-08T14:29:44.666Z,32.30
2018-05-08T14:32:12.155Z,32.10
2018-05-08T14:34:39.643Z,32.20
2018-05-08T14:37:07.995Z,31.80
2018-05-08T14:39:35.400Z,31.80
2018-05-08T14:42:03.013Z,31.70
2018-05-08T14:44:30.496Z,31.60
2018-05-08T14:46:58.783Z,31.00
2018-05-08T14:49:27.145Z,31.00
2018-05-08T14:51:55.313Z,31.00
2018-05-08T14:54:22.784Z,31.00
2018-05-08T14:56:51.062Z,30.90
2018-05-08T14:59:19.307Z,30.90
2018-05-08T15:01:47.004Z,30.80
2018-05-08T15:04:15.323Z,31.00
2018-05-08T15:06:44.400Z,31.00
2018-05-08T15:09:11.966Z,30.90
2018-05-08T15:11:39.491Z,30.70
2018-05-08T15:14:07.755Z,30.70
2018-05-08T15:16:35.219Z,30.70
2018-05-08T15:19:03.538Z,30.60
2018-05-08T15:21:31.021Z,30.60
2018-05-08T15:23:58.549Z,30.60
2018-05-08T15:26:26.048Z,30.60
2018-05-08T15:28:53.669Z,30.50
2018-05-08T15:31:21.131Z,30.30
2018-05-08T15:33:48.667Z,30.20
2018-05-08T15:36:16.258Z,30.20
2018-05-08T15:38:43.858Z,29.90
2018-05-08T15:41:11.407Z,29.60
2018-05-08T15:43:38.829Z,29.60
2018-05-08T15:46:06.310Z,29.50
2018-05-08T15:48:33.840Z,29.60
2018-05-08T15:51:01.331Z,29.40
2018-05-08T15:53:28.842Z,29.40
2018-05-08T15:55:56.351Z,29.40
2018-05-08T15:58:23.826Z,29.30
2018-05-08T16:00:52.124Z,29.20
2018-05-08T16:03:20.367Z,29.00
2018-05-08T16:05:47.904Z,28.90
2018-05-08T16:08:15.482Z,28.80
2018-05-08T16:10:42.992Z,28.70
2018-05-08T16:13:10.470Z,28.60
2018-05-08T16:15:37.963Z,28.50
2018-05-08T16:18:05.453Z,28.50
2018-05-08T16:20:32.950Z,28.50
2018-05-08T16:23:00.435Z,28.50
2018-05-08T16:25:27.942Z,28.40
2018-05-08T16:27:55.425Z,28.30
2018-05-08T16:30:22.983Z,28.20
2018-05-08T16:32:50.421Z,28.10
2018-05-08T16:35:17.928Z,28.10
2018-05-08T16:37:45.409Z,28.10
2018-05-08T16:40:13.694Z,28.00
2018-05-08T16:42:41.204Z,27.90
2018-05-08T16:45:08.696Z,27.90
2018-05-08T16:47:36.961Z,27.70
2018-05-08T16:50:04.465Z,27.70
2018-05-08T16:52:32.012Z,27.60
2018-05-08T16:54:59.476Z,27.60
2018-05-08T16:57:26.968Z,27.50
2018-05-08T16:59:54.517Z,27.40
2018-05-08T17:02:22.028Z,27.40
2018-05-08T17:04:49.695Z,27.40
2018-05-08T17:07:17.122Z,27.30
2018-05-08T17:09:44.576Z,27.30
2018-05-08T17:12:12.088Z,27.30
2018-05-08T17:14:39.567Z,27.20
2018-05-08T17:17:07.092Z,27.10
2018-05-08T17:19:34.637Z,27.10
2018-05-08T17:22:03.039Z,26.80
2018-05-08T17:24:30.516Z,26.80
2018-05-08T17:26:58.020Z,26.80
2018-05-08T17:29:26.249Z,26.50
2018-05-08T17:31:53.721Z,26.50
2018-05-08T17:34:21.233Z,26.50
2018-05-08T17:36:48.720Z,26.40
2018-05-08T17:39:16.239Z,26.30
2018-05-08T17:41:44.481Z,26.20
2018-05-08T17:44:12.001Z,26.10
2018-05-08T17:46:39.553Z,26.00
2018-05-08T17:49:07.060Z,26.00
2018-05-08T17:51:34.535Z,25.90
2018-05-08T17:54:02.803Z,25.70
2018-05-08T17:56:30.284Z,25.60
2018-05-08T17:58:57.804Z,25.60
2018-05-08T18:01:25.281Z,25.50
2018-05-08T18:03:53.544Z,25.20
2018-05-08T18:06:21.049Z,25.20
2018-05-08T18:08:48.544Z,25.10
2018-05-08T18:11:16.113Z,25.00
2018-05-08T18:13:43.567Z,24.90
2018-05-08T18:16:11.049Z,24.80
2018-05-08T18:18:39.307Z,24.50
2018-05-08T18:21:06.804Z,24.40
2018-05-08T18:23:34.275Z,24.30
2018-05-08T18:26:01.776Z,24.20
2018-05-08T18:28:29.257Z,24.00
2018-05-08T18:30:58.246Z,23.70
2018-05-08T18:33:26.482Z,23.60
2018-05-08T18:35:53.988Z,23.50
2018-05-08T18:38:22.242Z,23.30
2018-05-08T18:40:49.753Z,23.30
2018-05-08T18:43:17.236Z,23.20
2018-05-08T18:45:44.756Z,23.00
2018-05-08T18:48:12.269Z,22.90
2018-05-08T18:50:39.790Z,22.70
2018-05-08T18:53:07.275Z,22.50
2018-05-08T18:55:34.791Z,22.40
2018-05-08T18:58:02.282Z,22.20
2018-05-08T19:00:35.552Z,22.10
2018-05-08T19:03:03.039Z,22.00
2018-05-08T19:05:30.556Z,21.80
2018-05-08T19:07:58.017Z,21.70
2018-05-08T19:10:25.537Z,21.50
2018-05-08T19:12:53.416Z,21.40
2018-05-08T19:15:27.491Z,21.10
2018-05-08T19:17:55.021Z,21.10
2018-05-08T19:20:22.517Z,20.90
2018-05-08T19:22:50.024Z,20.80
2018-05-08T19:25:17.533Z,20.60
2018-05-08T19:27:45.033Z,20.50
2018-05-08T19:30:18.126Z,20.30
2018-05-08T19:32:45.646Z,20.20
2018-05-08T19:35:18.859Z,20.10
2018-05-08T19:37:52.841Z,19.80
2018-05-08T19:40:20.323Z,19.80
2018-05-08T19:42:48.597Z,19.50
2018-05-08T19:45:16.080Z,19.50
2018-05-08T19:47:43.594Z,19.40
2018-05-08T19:50:11.087Z,19.30
2018-05-08T19:52:39.351Z,19.10
2018-05-08T19:55:07.600Z,19.00
2018-05-08T19:57:35.110Z,18.90
2018-05-08T20:00:02.599Z,18.90
2018-05-08T20:02:30.111Z,18.70
2018-05-08T20:04:58.508Z,18.50
2018-05-08T20:07:26.028Z,18.40
2018-05-08T20:09:53.494Z,18.40
2018-05-08T20:12:21.783Z,18.10
2018-05-08T20:14:50.014Z,18.00
2018-05-08T20:17:17.529Z,18.00
2018-05-08T20:19:45.006Z,17.90
2018-05-08T20:22:12.659Z,17.70
2018-05-08T20:24:40.170Z,17.60
2018-05-08T20:27:07.640Z,17.50
2018-05-08T20:29:35.892Z,17.30
2018-05-08T20:32:03.382Z,17.20
2018-05-08T20:34:31.651Z,17.00
2018-05-08T20:36:59.899Z,16.90
2018-05-08T20:39:27.411Z,16.90
2018-05-08T20:41:54.912Z,16.80
2018-05-08T20:44:22.400Z,16.70
2018-05-08T20:46:50.642Z,16.60
2018-05-08T20:49:18.157Z,16.60
2018-05-08T20:51:45.635Z,16.50
2018-05-08T20:54:13.138Z,16.40
2018-05-08T20:56:41.388Z,16.20
2018-05-08T20:59:08.901Z,16.20
2018-05-08T21:01:36.395Z,16.20
2018-05-08T21:04:03.881Z,16.20
2018-05-08T21:06:31.378Z,16.10
2018-05-08T21:08:59.682Z,15.90
2018-05-08T21:11:27.158Z,15.90
2018-05-08T21:13:54.618Z,15.80
2018-05-08T21:16:22.107Z,15.70
2018-05-08T21:18:50.337Z,15.40
2018-05-08T21:21:17.862Z,15.40
2018-05-08T21:23:45.343Z,15.30
2018-05-08T21:26:12.841Z,15.20
2018-05-08T21:28:45.996Z,15.10
2018-05-08T21:31:14.450Z,15.10
2018-05-08T21:33:41.930Z,15.00
2018-05-08T21:36:09.973Z,14.90
2018-05-08T21:38:37.438Z,14.90
2018-05-08T21:41:04.943Z,15.00
2018-05-08T21:43:32.439Z,14.90
2018-05-08T21:46:00.720Z,14.70
2018-05-08T21:48:28.208Z,14.70
2018-05-08T21:50:55.749Z,14.60
2018-05-08T21:53:23.216Z,14.50
2018-05-08T21:55:50.719Z,14.40
2018-05-08T21:58:18.221Z,14.30
2018-05-08T22:00:45.708Z,14.20
2018-05-08T22:03:13.203Z,14.10
2018-05-08T22:05:41.462Z,13.90
2018-05-08T22:08:08.961Z,13.80
2018-05-08T22:10:36.418Z,13.80
2018-05-08T22:13:03.917Z,13.70
2018-05-08T22:15:31.384Z,13.60
2018-05-08T22:17:58.906Z,13.50
2018-05-08T22:20:26.463Z,13.50
2018-05-08T22:22:53.984Z,13.40
2018-05-08T22:25:21.438Z,13.30
2018-05-08T22:27:48.984Z,13.30
2018-05-08T22:30:16.475Z,13.20
2018-05-08T22:32:44.746Z,13.10
2018-05-08T22:35:12.992Z,13.00
2018-05-08T22:37:40.486Z,13.10
2018-05-08T22:40:07.956Z,12.90
2018-05-08T22:42:35.430Z,12.80
2018-05-08T22:45:02.930Z,12.80
2018-05-08T22:47:30.397Z,12.70
2018-05-08T22:49:57.885Z,12.70
2018-05-08T22:52:25.358Z,12.60
2018-05-08T22:54:52.876Z,12.50
2018-05-08T22:57:21.122Z,12.50
2018-05-08T22:59:48.646Z,12.40
2018-05-08T23:02:16.117Z,12.40
2018-05-08T23:04:43.617Z,12.40
2018-05-08T23:07:11.853Z,12.30
2018-05-08T23:09:40.119Z,12.30
2018-05-08T23:12:07.603Z,12.30
2018-05-08T23:14:35.107Z,12.20
2018-05-08T23:17:02.595Z,12.20
2018-05-08T23:19:30.085Z,12.20
2018-05-08T23:21:57.544Z,12.10
2018-05-08T23:24:25.035Z,12.00
2018-05-08T23:26:53.273Z,12.10
2018-05-08T23:29:20.768Z,12.10
2018-05-08T23:31:48.279Z,12.10
2018-05-08T23:34:15.761Z,12.10
2018-05-08T23:36:44.023Z,12.00
2018-05-08T23:39:11.497Z,11.90
2018-05-08T23:41:39.762Z,11.80
2018-05-08T23:44:07.241Z,11.80
2018-05-08T23:46:35.511Z,11.60
2018-05-08T23:49:03.771Z,11.60
2018-05-08T23:51:31.256Z,11.60
2018-05-08T23:53:59.487Z,11.50
2018-05-08T23:56:26.980Z,11.50
2018-05-08T23:58:54.442Z,11.40
